Meath Environmental Platform

Observations for Trim Market St

Time AQI Temp °C Hum % Pres Pa CO μg/m³ H₂S μg/m³ NO μg/m³ NO₂ μg/m³ O₃ μg/m³ SO₂ μg/m³ PM1 μg/m³ PM2.5 μg/m³ PM10 μg/m³
Wednesday 26 August 2026
15:50 2 32.6 42 65,955 0 0 2.14 24.46 78.56 0 2.85 5.93 6.74
15:49 2 32.4 43 65,908 0 0 2.15 11.49 58.15 0 2.14 4.84 5.17
15:48 2 32.2 44 65,841 0 0 2.19 20.37 64.38 0 2.85 5.35 5.96
15:46 2 31.7 44 65,776 0 0 1.97 20.68 65.18 0 2.85 5.34 6.74
15:45 2 31.6 44 65,789 0 0 2 15.23 68.8 0 2.85 6.38 8.31
15:43 2 31.3 44 65,726 0 0 2.02 16.65 66.8 0 2.85 5.33 5.96
15:42 2 31.2 44 65,723 0 0 1.95 17.13 67.44 0 1.43 4.8 5.18
15:41 2 31 44 65,663 0 0 2.02 16.06 68.25 0 4.28 6.88 8.31
15:40 2 30.9 44 65,643 0 0 2.01 13.59 68.97 0 2.85 5.3 5.97
15:39 2 30.8 45 65,590 0 0 1.99 11.33 69.51 0 2.14 5.29 5.97
15:38 2 30.7 45 65,527 0 0 1.96 15.54 64.64 0 2.85 6.32 10.63
15:36 2 30.6 46 65,406 0 0 2.02 13.53 67.31 0 3.56 6.29 8.3
15:34 2 30.4 46 65,285 0 0 2.05 14.11 68.03 0 2.85 5.22 5.99
15:30 2 30 47 64,981 0 0 2.1 14.21 67.04 0 4.28 6.73 8.29
15:29 2 29.8 47 64,927 0 0 2.05 11.96 68.16 0 4.28 6.2 7.53
15:27 2 29.8 48 64,680 0 0 2.04 14.05 65.58 0 2.14 4.62 5.25
15:26 2 29.7 48 64,592 0 0 1.85 12.18 66.88 0 2.85 6.16 7.53
15:00 2 28 54 55,563 0 0 2.72 19 47.55 0 2.85 5.86 7.53
14:59 2 28 54 55,560 0.05 0 2.72 42.07 45.42 0 4.99 8.41 11.15
14:58 2 28.1 54 55,545 0 0 2.69 11.35 58.82 0 6.41 9.42 12.59